Terminal Aerodrome Forecast
Issued by NWS

Home | Current Version | Previous Version | Text Only | Print | Product List | Glossary On
Versions: 1 2 3 4 5 6 7 8 9 10 11 12 13 14 15 16
000
FTUS42 KMLB 161739
TAFLEE
TAF
KLEE 161739Z 1618/1718 03007KT P6SM SCT050 SCT250
     FM162200 05004KT P6SM FEW040 BKN250
     FM170900 04003KT P6SM FEW020 BKN250
      TEMPO 1709/1713 4SM BR=

USA.gov is the U.S. government's official web portal to all federal, state and local government web resources and services.